createdAt,value
2018-01-15T00:00:30.293Z,3.50
2018-01-15T00:03:32.437Z,3.50
2018-01-15T00:06:33.785Z,3.40
2018-01-15T00:09:35.157Z,3.70
2018-01-15T00:12:36.561Z,3.50
2018-01-15T00:15:37.897Z,3.40
2018-01-15T00:18:39.276Z,3.50
2018-01-15T00:21:40.646Z,3.40
2018-01-15T00:24:42.035Z,3.70
2018-01-15T00:27:43.394Z,3.60
2018-01-15T00:30:44.741Z,3.50
2018-01-15T00:33:46.106Z,3.50
2018-01-15T00:36:47.471Z,3.50
2018-01-15T00:39:49.555Z,3.50
2018-01-15T00:42:50.922Z,3.40
2018-01-15T00:45:52.341Z,3.20
2018-01-15T00:48:53.697Z,3.50
2018-01-15T00:51:55.026Z,3.40
2018-01-15T00:54:56.369Z,3.50
2018-01-15T00:57:57.714Z,3.50
2018-01-15T01:00:59.074Z,3.60
2018-01-15T01:04:00.471Z,3.70
2018-01-15T01:07:01.851Z,3.60
2018-01-15T01:10:03.978Z,3.60
2018-01-15T01:13:06.117Z,3.60
2018-01-15T01:16:07.474Z,3.50
2018-01-15T01:19:08.811Z,3.30
2018-01-15T01:22:10.179Z,3.50
2018-01-15T01:25:11.535Z,3.60
2018-01-15T01:28:12.917Z,3.60
2018-01-15T01:31:14.303Z,3.50
2018-01-15T01:34:16.392Z,3.50
2018-01-15T01:37:17.756Z,3.50
2018-01-15T01:40:19.120Z,3.40
2018-01-15T01:43:20.488Z,3.50
2018-01-15T01:46:21.816Z,3.50
2018-01-15T01:49:23.221Z,3.50
2018-01-15T01:52:25.326Z,3.50
2018-01-15T01:55:26.736Z,3.20
2018-01-15T01:58:28.871Z,3.50
2018-01-15T02:01:30.269Z,3.60
2018-01-15T02:04:31.639Z,3.50
2018-01-15T02:07:32.979Z,3.50
2018-01-15T02:10:34.381Z,3.70
2018-01-15T02:13:35.730Z,3.30
2018-01-15T02:16:37.119Z,3.40
2018-01-15T02:19:38.501Z,3.10
2018-01-15T02:22:39.867Z,3.20
2018-01-15T02:25:41.279Z,3.60
2018-01-15T02:28:42.631Z,3.50
2018-01-15T02:31:44.036Z,3.40
2018-01-15T02:34:45.395Z,3.40
2018-01-15T02:37:46.877Z,3.40
2018-01-15T02:40:48.278Z,3.20
2018-01-15T02:43:49.606Z,3.20
2018-01-15T02:46:50.997Z,3.20
2018-01-15T02:49:52.339Z,3.20
2018-01-15T02:52:53.729Z,3.30
2018-01-15T02:55:55.053Z,3.50
2018-01-15T02:58:57.156Z,3.40
2018-01-15T03:01:58.568Z,3.40
2018-01-15T03:04:59.903Z,3.10
2018-01-15T03:08:01.327Z,3.50
2018-01-15T03:11:02.835Z,3.50
2018-01-15T03:14:04.920Z,3.60
2018-01-15T03:17:06.297Z,3.30
2018-01-15T03:20:07.949Z,3.60
2018-01-15T03:23:09.353Z,3.50
2018-01-15T03:26:10.686Z,3.60
2018-01-15T03:29:12.022Z,3.60
2018-01-15T03:32:14.111Z,3.70
2018-01-15T03:35:15.482Z,3.80
2018-01-15T03:38:17.574Z,3.70
2018-01-15T03:41:18.958Z,3.50
2018-01-15T03:44:20.363Z,3.70
2018-01-15T03:47:22.469Z,3.90
2018-01-15T03:50:24.046Z,3.90
2018-01-15T03:53:25.393Z,3.90
2018-01-15T03:56:26.744Z,3.90
2018-01-15T03:59:29.585Z,3.90
2018-01-15T04:02:37.853Z,3.90
2018-01-15T04:05:39.198Z,3.90
2018-01-15T04:08:40.558Z,3.80
2018-01-15T04:11:41.969Z,4.00
2018-01-15T04:14:43.303Z,3.90
2018-01-15T04:17:44.676Z,3.70
2018-01-15T04:20:46.023Z,4.00
2018-01-15T04:23:47.371Z,3.80
2018-01-15T04:26:48.698Z,3.70
2018-01-15T04:29:50.062Z,3.90
2018-01-15T04:32:51.439Z,3.70
2018-01-15T04:35:52.814Z,3.90
2018-01-15T04:38:54.153Z,3.80
2018-01-15T04:41:55.474Z,4.10
2018-01-15T04:44:56.793Z,4.00
2018-01-15T04:47:58.307Z,4.00
2018-01-15T04:50:59.706Z,4.30
2018-01-15T04:54:01.054Z,4.00
2018-01-15T04:57:02.389Z,4.10
2018-01-15T05:00:04.506Z,4.10
2018-01-15T05:03:05.811Z,4.10
2018-01-15T05:06:08.008Z,4.10
2018-01-15T05:09:09.370Z,3.90
2018-01-15T05:12:10.689Z,3.80
2018-01-15T05:15:12.041Z,4.10
2018-01-15T05:18:13.355Z,4.10
2018-01-15T05:21:14.740Z,4.20
2018-01-15T05:24:16.057Z,3.90
2018-01-15T05:27:18.147Z,4.30
2018-01-15T05:30:20.226Z,4.30
2018-01-15T05:33:21.523Z,4.20
2018-01-15T05:36:22.902Z,4.30
2018-01-15T05:39:25.009Z,4.40
2018-01-15T05:42:26.341Z,4.40
2018-01-15T05:45:34.615Z,4.40
2018-01-15T05:48:35.960Z,4.50
2018-01-15T05:51:37.354Z,4.40
2018-01-15T05:54:38.679Z,4.30
2018-01-15T05:57:40.896Z,4.50
2018-01-15T06:00:42.289Z,4.40
2018-01-15T06:03:43.637Z,4.40
2018-01-15T06:06:45.014Z,4.20
2018-01-15T06:09:47.207Z,4.30
2018-01-15T06:12:48.678Z,4.40
2018-01-15T06:15:50.107Z,4.30
2018-01-15T06:18:51.632Z,4.40
2018-01-15T06:21:53.899Z,4.40
2018-01-15T06:24:55.479Z,4.40
2018-01-15T06:27:57.009Z,4.30
2018-01-15T06:30:59.239Z,4.40
2018-01-15T06:34:00.726Z,4.40
2018-01-15T06:37:02.226Z,4.40
2018-01-15T06:40:03.698Z,4.40
2018-01-15T06:43:05.190Z,4.20
2018-01-15T06:46:06.707Z,4.40
2018-01-15T06:49:08.166Z,4.40
2018-01-15T06:52:09.662Z,4.40
2018-01-15T06:55:11.858Z,4.40
2018-01-15T06:58:13.473Z,4.50
2018-01-15T07:01:14.922Z,4.40
2018-01-15T07:04:16.407Z,4.40
2018-01-15T07:07:18.716Z,4.40
2018-01-15T07:10:20.190Z,4.40
2018-01-15T07:13:21.725Z,4.40
2018-01-15T07:16:23.038Z,4.20
2018-01-15T07:19:24.475Z,4.40
2018-01-15T07:22:26.588Z,4.50
2018-01-15T07:25:27.865Z,4.50
2018-01-15T07:28:29.203Z,4.50
2018-01-15T07:31:30.446Z,4.30
2018-01-15T07:34:31.753Z,4.50
2018-01-15T07:37:33.790Z,4.60
2018-01-15T07:40:35.056Z,4.40
2018-01-15T07:43:37.031Z,4.60
2018-01-15T07:46:39.045Z,4.50
2018-01-15T07:49:40.340Z,4.50
2018-01-15T07:52:42.336Z,4.50
2018-01-15T07:55:43.627Z,4.40
2018-01-15T07:58:44.891Z,4.60
2018-01-15T08:01:46.919Z,4.50
2018-01-15T08:04:48.201Z,4.50
2018-01-15T08:07:49.831Z,4.80
2018-01-15T08:10:51.150Z,4.70
2018-01-15T08:13:52.450Z,4.70
2018-01-15T08:16:53.729Z,4.60
2018-01-15T08:19:55.035Z,4.60
2018-01-15T08:22:56.314Z,4.70
2018-01-15T08:25:59.041Z,4.70
2018-01-15T08:29:00.288Z,4.60
2018-01-15T08:32:03.629Z,4.70
2018-01-15T08:35:04.906Z,4.90
2018-01-15T08:38:06.178Z,4.80
2018-01-15T08:41:07.452Z,4.80
2018-01-15T08:44:08.713Z,4.80
2018-01-15T08:47:10.199Z,4.70
2018-01-15T08:50:12.186Z,4.90
2018-01-15T08:53:13.454Z,4.90
2018-01-15T08:56:14.774Z,4.90
2018-01-15T08:59:17.110Z,4.90
2018-01-15T09:02:19.165Z,4.90
2018-01-15T09:05:20.504Z,4.90
2018-01-15T09:08:21.805Z,5.00
2018-01-15T09:11:24.426Z,5.00
2018-01-15T09:14:25.774Z,5.00
2018-01-15T09:17:27.070Z,5.10
2018-01-15T09:20:29.159Z,5.00
2018-01-15T09:23:30.388Z,5.00
2018-01-15T09:26:32.404Z,5.10
2018-01-15T09:29:33.760Z,5.10
2018-01-15T09:32:35.804Z,5.50
2018-01-15T09:35:37.054Z,5.40
2018-01-15T09:38:38.340Z,5.30
2018-01-15T09:41:39.594Z,5.30
2018-01-15T09:44:40.846Z,5.30
2018-01-15T09:47:42.147Z,5.10
2018-01-15T09:50:43.428Z,5.30
2018-01-15T09:53:45.444Z,5.30
2018-01-15T09:56:48.218Z,5.30
2018-01-15T09:59:50.582Z,5.30
2018-01-15T10:02:52.659Z,5.40
2018-01-15T10:05:56.183Z,5.50
2018-01-15T10:08:57.482Z,5.50
2018-01-15T10:11:59.803Z,5.40
2018-01-15T10:15:01.110Z,5.40
2018-01-15T10:18:03.901Z,5.30
2018-01-15T10:21:05.869Z,5.60
2018-01-15T10:24:08.299Z,5.60
2018-01-15T10:27:09.603Z,5.60
2018-01-15T10:30:12.014Z,5.60
2018-01-15T10:33:13.258Z,5.70
2018-01-15T10:36:16.301Z,5.70
2018-01-15T10:39:18.326Z,5.80
2018-01-15T10:42:19.630Z,5.70
2018-01-15T10:45:21.657Z,5.80
2018-01-15T10:48:22.920Z,5.90
2018-01-15T10:51:24.189Z,5.90
2018-01-15T10:54:26.158Z,5.90
2018-01-15T10:57:28.218Z,5.90
2018-01-15T11:00:36.524Z,5.90
2018-01-15T11:03:38.538Z,5.90
2018-01-15T11:06:40.574Z,6.00
2018-01-15T11:09:41.838Z,6.00
2018-01-15T11:12:43.103Z,6.10
2018-01-15T11:15:44.359Z,6.00
2018-01-15T11:18:45.663Z,6.20
2018-01-15T11:21:47.724Z,6.20
2018-01-15T11:24:49.717Z,6.20
2018-01-15T11:27:51.394Z,6.20
2018-01-15T11:30:52.659Z,6.30
2018-01-15T11:33:53.928Z,6.30
2018-01-15T11:36:55.264Z,6.30
2018-01-15T11:39:56.547Z,6.40
2018-01-15T11:42:58.542Z,6.40
2018-01-15T11:45:59.827Z,6.40
2018-01-15T11:49:01.097Z,6.40
2018-01-15T11:52:03.083Z,6.40
2018-01-15T11:55:04.478Z,6.50
2018-01-15T11:58:05.746Z,6.40
2018-01-15T12:01:07.417Z,6.40
2018-01-15T12:04:09.118Z,6.30
2018-01-15T12:07:10.608Z,6.40
2018-01-15T12:10:12.422Z,6.60
2018-01-15T12:13:13.743Z,6.20
2018-01-15T12:16:15.793Z,6.20
2018-01-15T12:19:18.335Z,6.20
2018-01-15T12:22:19.646Z,6.20
2018-01-15T12:25:21.731Z,6.10
2018-01-15T12:28:23.133Z,5.90
2018-01-15T12:31:24.460Z,5.90
2018-01-15T12:34:25.737Z,6.40
2018-01-15T12:37:27.055Z,6.20
2018-01-15T12:40:28.440Z,6.00
2018-01-15T12:43:29.774Z,6.00
2018-01-15T12:46:31.090Z,6.00
2018-01-15T12:49:32.462Z,6.00
2018-01-15T12:52:33.823Z,5.90
2018-01-15T12:55:35.150Z,6.00
2018-01-15T12:58:36.515Z,6.10
2018-01-15T13:01:37.886Z,6.10
2018-01-15T13:04:39.270Z,6.10
2018-01-15T13:11:27.210Z,6.20
2018-01-15T13:14:28.514Z,6.10
2018-01-15T13:17:29.791Z,6.10
2018-01-15T13:20:31.095Z,6.10
2018-01-15T13:23:32.355Z,6.10
2018-01-15T13:26:33.638Z,6.10
2018-01-15T13:29:34.969Z,6.30
2018-01-15T13:32:36.271Z,6.10
2018-01-15T13:35:38.329Z,6.20
2018-01-15T13:38:40.348Z,6.20
2018-01-15T13:41:41.630Z,6.10
2018-01-15T13:44:42.932Z,6.10
2018-01-15T13:47:44.237Z,6.10
2018-01-15T13:50:46.285Z,6.00
2018-01-15T13:53:47.526Z,6.10
2018-01-15T13:56:48.832Z,6.10
2018-01-15T13:59:50.165Z,6.10
2018-01-15T14:02:51.500Z,6.00
2018-01-15T14:05:53.536Z,5.90
2018-01-15T14:08:54.868Z,5.90
2018-01-15T14:11:56.173Z,5.90
2018-01-15T14:14:58.200Z,5.80
2018-01-15T14:18:07.350Z,5.80
2018-01-15T14:21:08.618Z,5.80
2018-01-15T14:24:10.721Z,5.60
2018-01-15T14:27:11.998Z,5.60
2018-01-15T14:30:13.293Z,5.60
2018-01-15T14:33:15.336Z,5.60
2018-01-15T14:36:16.622Z,5.50
2018-01-15T14:39:17.919Z,5.50
2018-01-15T14:42:19.197Z,5.40
2018-01-15T14:45:21.216Z,5.40
2018-01-15T14:48:22.462Z,5.40
2018-01-15T14:51:23.806Z,5.40
2018-01-15T14:54:25.064Z,5.30
2018-01-15T14:57:26.361Z,5.30
2018-01-15T15:00:27.639Z,5.30
2018-01-15T15:03:28.945Z,5.20
2018-01-15T15:06:31.003Z,5.30
2018-01-15T15:09:32.273Z,5.30
2018-01-15T15:12:34.291Z,5.30
2018-01-15T15:15:35.570Z,5.20
2018-01-15T15:18:36.864Z,5.30
2018-01-15T15:21:45.220Z,5.40
2018-01-15T15:24:46.549Z,5.30
2018-01-15T15:27:47.852Z,5.50
2018-01-15T15:30:49.182Z,5.20
2018-01-15T15:33:50.443Z,5.30
2018-01-15T15:36:52.456Z,5.30
2018-01-15T15:39:53.745Z,5.30
2018-01-15T15:42:56.104Z,5.30
2018-01-15T15:45:58.206Z,5.30
2018-01-15T15:49:00.228Z,5.30
2018-01-15T15:52:02.213Z,5.30
2018-01-15T15:55:03.521Z,5.30
2018-01-15T15:58:04.785Z,5.40
2018-01-15T16:01:06.124Z,5.50
2018-01-15T16:04:07.393Z,5.30
2018-01-15T16:07:09.069Z,5.30
2018-01-15T16:10:10.372Z,5.40
2018-01-15T16:13:12.181Z,5.40
2018-01-15T16:16:13.565Z,5.40
2018-01-15T16:19:17.097Z,5.40
2018-01-15T16:22:33.505Z,5.40
2018-01-15T16:25:34.697Z,5.30
2018-01-15T16:28:36.840Z,5.80
2018-01-15T16:31:38.178Z,5.80
2018-01-15T16:34:39.500Z,5.60
2018-01-15T16:37:40.827Z,5.50
2018-01-15T16:40:42.063Z,5.60
2018-01-15T16:43:44.144Z,5.40
2018-01-15T16:46:45.425Z,5.50
2018-01-15T16:49:46.753Z,5.50
2018-01-15T16:52:47.983Z,5.50
2018-01-15T16:55:49.392Z,5.50
2018-01-15T16:58:50.761Z,5.50
2018-01-15T17:01:52.035Z,5.50
2018-01-15T17:04:53.389Z,5.50
2018-01-15T17:07:54.665Z,5.50
2018-01-15T17:10:56.735Z,5.50
2018-01-15T17:13:57.988Z,5.50
2018-01-15T17:16:59.226Z,5.50
2018-01-15T17:20:00.505Z,5.40
2018-01-15T17:23:01.795Z,5.40
2018-01-15T17:26:03.148Z,5.40
2018-01-15T17:29:04.424Z,5.20
2018-01-15T17:32:05.746Z,5.30
2018-01-15T17:35:07.044Z,5.30
2018-01-15T17:38:09.342Z,5.30
2018-01-15T17:41:11.346Z,5.30
2018-01-15T17:44:12.637Z,5.30
2018-01-15T17:47:13.927Z,5.30
2018-01-15T17:50:15.205Z,5.20
2018-01-15T17:53:16.501Z,5.30
2018-01-15T17:56:17.885Z,5.20
2018-01-15T17:59:19.234Z,5.20
2018-01-15T18:02:20.691Z,5.20
2018-01-15T18:05:21.946Z,5.10
2018-01-15T18:08:23.262Z,5.30
2018-01-15T18:11:25.257Z,5.20
2018-01-15T18:14:26.724Z,5.20
2018-01-15T18:17:27.976Z,5.20
2018-01-15T18:20:29.303Z,5.30
2018-01-15T18:23:30.596Z,5.30
2018-01-15T18:26:31.848Z,5.30
2018-01-15T18:29:33.131Z,5.30
2018-01-15T18:32:35.102Z,5.30
2018-01-15T18:35:36.432Z,5.30
2018-01-15T18:38:37.609Z,5.30
2018-01-15T18:41:38.932Z,5.30
2018-01-15T18:44:40.953Z,5.30
2018-01-15T18:47:42.233Z,5.30
2018-01-15T18:50:43.681Z,5.30
2018-01-15T18:53:45.132Z,5.40
2018-01-15T18:56:50.483Z,5.20
2018-01-15T18:59:51.885Z,5.50
2018-01-15T19:02:53.224Z,5.30
2018-01-15T19:05:54.536Z,5.20
2018-01-15T19:08:56.626Z,5.40
2018-01-15T19:11:58.849Z,5.40
2018-01-15T19:15:01.509Z,5.50
2018-01-15T19:18:05.303Z,5.40
2018-01-15T19:21:06.680Z,5.50
2018-01-15T19:24:08.302Z,5.40
2018-01-15T19:27:10.929Z,5.50
2018-01-15T19:30:15.676Z,5.40
2018-01-15T19:33:17.831Z,5.50
2018-01-15T19:40:04.938Z,5.50
2018-01-15T19:43:13.609Z,5.50
2018-01-15T19:46:22.095Z,5.60
2018-01-15T19:49:29.671Z,5.60
2018-01-15T19:56:15.570Z,5.50
2018-01-15T19:59:23.774Z,5.50
2018-01-15T20:02:31.952Z,5.40
2018-01-15T20:05:40.785Z,5.40
2018-01-15T20:08:49.332Z,5.40
2018-01-15T20:11:50.705Z,5.40
2018-01-15T20:14:53.705Z,5.20
2018-01-15T20:17:56.471Z,5.40
2018-01-15T20:20:57.927Z,5.40
2018-01-15T20:23:59.246Z,5.40
2018-01-15T20:27:00.659Z,5.40
2018-01-15T20:30:02.584Z,5.40
2018-01-15T20:33:04.356Z,5.40
2018-01-15T20:36:06.022Z,5.40
2018-01-15T20:39:07.485Z,5.40
2018-01-15T20:42:09.374Z,5.50
2018-01-15T20:45:11.237Z,5.40
2018-01-15T20:48:12.703Z,5.40
2018-01-15T20:51:15.495Z,5.30
2018-01-15T20:54:18.829Z,5.50
2018-01-15T20:57:20.279Z,5.50
2018-01-15T21:00:22.344Z,5.50
2018-01-15T21:03:23.741Z,5.50
2018-01-15T21:06:26.251Z,5.50
2018-01-15T21:09:28.740Z,5.60
2018-01-15T21:12:30.236Z,5.60
2018-01-15T21:15:31.653Z,5.60
2018-01-15T21:18:33.148Z,5.50
2018-01-15T21:21:35.430Z,5.60
2018-01-15T21:24:37.600Z,5.50
2018-01-15T21:27:39.801Z,5.40
2018-01-15T21:30:41.256Z,5.40
2018-01-15T21:33:42.735Z,5.10
2018-01-15T21:36:44.150Z,5.40
2018-01-15T21:39:46.345Z,5.40
2018-01-15T21:42:47.884Z,5.50
2018-01-15T21:45:49.492Z,5.30
2018-01-15T21:48:51.664Z,5.40
2018-01-15T21:51:53.237Z,5.50
2018-01-15T21:54:55.568Z,5.40
2018-01-15T21:57:57.096Z,5.40
2018-01-15T22:00:58.612Z,5.70
2018-01-15T22:04:00.120Z,5.50
2018-01-15T22:07:01.666Z,5.50
2018-01-15T22:10:03.271Z,5.60
2018-01-15T22:13:04.860Z,5.60
2018-01-15T22:16:06.433Z,5.40
2018-01-15T22:19:07.982Z,5.40
2018-01-15T22:22:09.556Z,5.70
2018-01-15T22:25:11.058Z,5.60
2018-01-15T22:28:13.271Z,5.70
2018-01-15T22:31:14.795Z,5.60
2018-01-15T22:34:17.023Z,5.70
2018-01-15T22:37:18.616Z,5.80
2018-01-15T22:40:20.915Z,5.80
2018-01-15T22:43:22.467Z,5.80
2018-01-15T22:46:24.072Z,5.90
2018-01-15T22:49:26.611Z,5.80
2018-01-15T22:52:28.140Z,6.00
2018-01-15T22:55:29.661Z,6.00
2018-01-15T22:58:31.104Z,5.90
2018-01-15T23:01:32.650Z,5.90
2018-01-15T23:04:34.796Z,6.00
2018-01-15T23:07:36.751Z,5.90
2018-01-15T23:10:38.233Z,6.00
2018-01-15T23:13:39.694Z,6.00
2018-01-15T23:16:41.395Z,6.00
2018-01-15T23:19:43.628Z,6.10
2018-01-15T23:22:45.075Z,6.00
2018-01-15T23:25:46.480Z,6.30
2018-01-15T23:28:47.952Z,6.10
2018-01-15T23:31:49.396Z,6.10
2018-01-15T23:34:50.925Z,6.30
2018-01-15T23:37:53.156Z,6.20
2018-01-15T23:40:54.613Z,6.30
2018-01-15T23:43:56.072Z,6.20
2018-01-15T23:46:57.488Z,6.20
2018-01-15T23:49:58.920Z,6.20
2018-01-15T23:53:01.086Z,6.20
2018-01-15T23:56:03.289Z,6.20
2018-01-15T23:59:04.736Z,6.20
